Time;durP1;ratioP1;P1;durP2;ratioP2;P2;SDS_P1;SDS_P2;PMS_P1;PMS_P2;Temp;Humidity;BMP_temperature;BMP_pressure;BME280_temperature;BME280_humidity;BME280_pressure;Samples;Min_cycle;Max_cycle;Signal;HPM_P1;HPM_P2
2023/02/28 00:00:27;;;;;;;35.08;20.73;;;;;;;;;;1030072;28;20026;-27
2023/02/28 00:00:58;;;;;;;48.95;21.20;;;;;;;;;;1030255;28;20374;-27
2023/02/28 00:01:28;;;;;;;35.15;18.50;;;;;;;;;;1029051;28;20033;-27
2023/02/28 00:01:59;;;;;;;35.08;19.45;;;;;;;;;;1029842;28;20109;-28
2023/02/28 00:02:30;;;;;;;32.15;19.08;;;;;;;;;;1029433;28;20036;-28
2023/02/28 00:03:00;;;;;;;36.25;17.40;;;;;;;;;;1030136;28;20163;-28
2023/02/28 00:03:34;;;;;;;46.88;20.10;;;;;;;;;;1029842;28;20086;-27
2023/02/28 00:04:05;;;;;;;40.60;19.17;;;;;;;;;;1029854;28;20074;-27
2023/02/28 00:04:35;;;;;;;41.65;23.65;;;;;;;;;;1029875;28;20126;-28
2023/02/28 00:05:06;;;;;;;36.40;20.13;;;;;;;;;;1030122;28;20061;-27
2023/02/28 00:05:37;;;;;;;36.40;18.52;;;;;;;;;;1030054;28;20034;-27
2023/02/28 00:06:09;;;;;;;41.63;19.33;;;;;;;;;;1030399;28;20117;-27
2023/02/28 00:06:39;;;;;;;47.28;24.75;;;;;;;;;;1029956;28;20030;-27
2023/02/28 00:07:10;;;;;;;36.13;17.27;;;;;;;;;;1029998;28;20037;-27
2023/02/28 00:07:41;;;;;;;43.88;18.83;;;;;;;;;;1029938;28;20027;-28
2023/02/28 00:08:13;;;;;;;44.42;19.23;;;;;;;;;;1030210;28;20026;-27
2023/02/28 00:08:43;;;;;;;37.25;23.20;;;;;;;;;;1029881;28;20110;-27
2023/02/28 00:09:14;;;;;;;51.70;22.17;;;;;;;;;;1030927;28;20062;-27
2023/02/28 00:09:44;;;;;;;45.20;19.55;;;;;;;;;;1030560;28;20034;-27
2023/02/28 00:10:22;;;;;;;39.30;20.85;;;;;;;;;;1030128;28;20054;-26
2023/02/28 00:10:53;;;;;;;51.55;20.98;;;;;;;;;;1029834;28;20066;-27
2023/02/28 00:11:23;;;;;;;34.72;16.45;;;;;;;;;;1029371;28;20022;-27
2023/02/28 00:11:54;;;;;;;29.27;17.70;;;;;;;;;;1029706;28;20039;-28
2023/02/28 00:12:24;;;;;;;45.65;21.13;;;;;;;;;;1030012;28;20034;-28
2023/02/28 00:12:56;;;;;;;30.30;19.45;;;;;;;;;;1029846;28;20482;-27
2023/02/28 00:13:27;;;;;;;40.10;17.85;;;;;;;;;;1029938;28;20029;-27
2023/02/28 00:13:58;;;;;;;35.97;18.80;;;;;;;;;;1029939;28;20026;-27
2023/02/28 00:14:30;;;;;;;33.88;18.48;;;;;;;;;;1030083;28;20045;-28
2023/02/28 00:15:01;;;;;;;53.03;19.38;;;;;;;;;;1030022;28;20391;-28
2023/02/28 00:15:32;;;;;;;32.83;15.50;;;;;;;;;;1029944;28;20030;-27
2023/02/28 00:16:04;;;;;;;42.80;18.90;;;;;;;;;;1030004;28;20492;-27
2023/02/28 00:16:35;;;;;;;34.58;17.08;;;;;;;;;;1029537;28;20049;-28
2023/02/28 00:17:05;;;;;;;38.05;18.52;;;;;;;;;;1029676;28;20566;-28
2023/02/28 00:17:36;;;;;;;36.03;17.92;;;;;;;;;;1029821;28;20039;-28
2023/02/28 00:18:07;;;;;;;36.03;18.23;;;;;;;;;;1029909;28;20037;-27
2023/02/28 00:18:37;;;;;;;32.83;17.05;;;;;;;;;;1029864;28;20023;-27
2023/02/28 00:19:08;;;;;;;37.47;17.75;;;;;;;;;;1030121;28;20030;-28
2023/02/28 00:19:38;;;;;;;39.35;16.65;;;;;;;;;;1029356;28;20109;-27
2023/02/28 00:20:11;;;;;;;32.45;17.60;;;;;;;;;;1029701;28;21473;-28
2023/02/28 00:20:42;;;;;;;44.00;15.73;;;;;;;;;;1029962;28;20077;-27
2023/02/28 00:21:12;;;;;;;37.83;17.65;;;;;;;;;;1030480;28;20534;-27
2023/02/28 00:21:43;;;;;;;46.67;19.60;;;;;;;;;;1029537;28;20054;-27
2023/02/28 00:22:14;;;;;;;39.83;18.83;;;;;;;;;;1030062;28;20113;-27
2023/02/28 00:22:46;;;;;;;26.60;16.83;;;;;;;;;;1029991;28;20062;-27
2023/02/28 00:23:16;;;;;;;38.63;22.60;;;;;;;;;;1029920;28;20037;-28
2023/02/28 00:23:47;;;;;;;36.28;17.25;;;;;;;;;;1029937;28;20038;-28
2023/02/28 00:24:18;;;;;;;33.78;17.70;;;;;;;;;;1029886;28;20022;-28
2023/02/28 00:24:48;;;;;;;43.13;20.42;;;;;;;;;;1029918;28;20552;-27
2023/02/28 00:25:20;;;;;;;23.40;14.77;;;;;;;;;;1030022;28;20506;-27
2023/02/28 00:25:51;;;;;;;33.35;17.20;;;;;;;;;;1029844;28;20023;-27
2023/02/28 00:26:22;;;;;;;51.72;16.52;;;;;;;;;;1029894;28;20030;-28
2023/02/28 00:26:52;;;;;;;30.15;14.93;;;;;;;;;;1029616;28;20084;-28
2023/02/28 00:27:23;;;;;;;42.65;16.55;;;;;;;;;;1030021;28;20550;-27
2023/02/28 00:27:53;;;;;;;42.30;19.15;;;;;;;;;;1030039;28;20029;-27
2023/02/28 00:28:24;;;;;;;27.50;13.80;;;;;;;;;;1030073;28;20035;-27
2023/02/28 00:28:54;;;;;;;41.55;16.63;;;;;;;;;;1029881;28;20046;-28
2023/02/28 00:29:25;;;;;;;30.42;16.30;;;;;;;;;;1029894;28;20023;-27
2023/02/28 00:29:56;;;;;;;58.75;17.58;;;;;;;;;;1029921;28;20062;-27
2023/02/28 00:30:26;;;;;;;42.65;17.92;;;;;;;;;;1029875;28;20056;-27
2023/02/28 00:30:57;;;;;;;41.95;16.98;;;;;;;;;;1030029;28;20033;-28
2023/02/28 00:31:28;;;;;;;26.23;14.05;;;;;;;;;;1028666;28;20506;-27
2023/02/28 00:31:58;;;;;;;31.88;16.63;;;;;;;;;;1029768;28;20519;-27
2023/02/28 00:32:29;;;;;;;43.17;17.83;;;;;;;;;;1029740;28;20569;-28
2023/02/28 00:33:00;;;;;;;26.02;15.57;;;;;;;;;;1029653;28;20118;-27
2023/02/28 00:33:30;;;;;;;38.65;15.70;;;;;;;;;;1029735;28;20025;-27
2023/02/28 00:34:01;;;;;;;31.38;17.55;;;;;;;;;;1029804;28;20030;-28
2023/02/28 00:34:37;;;;;;;33.75;18.52;;;;;;;;;;1029160;28;20031;-28
2023/02/28 00:35:08;;;;;;;32.53;16.30;;;;;;;;;;1029833;28;20106;-27
2023/02/28 00:35:39;;;;;;;29.50;13.95;;;;;;;;;;1029504;28;20079;-27
2023/02/28 00:36:11;;;;;;;39.63;16.55;;;;;;;;;;1030281;28;20146;-28
2023/02/28 00:36:45;;;;;;;35.35;14.48;;;;;;;;;;1029402;28;20030;-28
2023/02/28 00:37:15;;;;;;;32.45;15.13;;;;;;;;;;1029982;28;20030;-28
2023/02/28 00:37:47;;;;;;;22.73;14.20;;;;;;;;;;1029970;28;20490;-27
2023/02/28 00:38:18;;;;;;;39.53;16.35;;;;;;;;;;1029805;28;20060;-28
2023/02/28 00:38:48;;;;;;;29.48;18.52;;;;;;;;;;1029879;28;20029;-27
2023/02/28 00:39:19;;;;;;;30.17;17.42;;;;;;;;;;1029875;28;20023;-27
2023/02/28 00:39:49;;;;;;;34.05;15.90;;;;;;;;;;1029868;28;20030;-27
2023/02/28 00:40:20;;;;;;;37.75;18.45;;;;;;;;;;1029986;28;20026;-27
2023/02/28 00:40:50;;;;;;;29.45;14.88;;;;;;;;;;1029767;28;20027;-28
2023/02/28 00:41:21;;;;;;;28.50;14.85;;;;;;;;;;1029612;28;20113;-28
2023/02/28 00:41:51;;;;;;;37.53;18.70;;;;;;;;;;1029569;28;20035;-27
2023/02/28 00:42:22;;;;;;;25.88;15.43;;;;;;;;;;1029859;28;20023;-27
2023/02/28 00:42:52;;;;;;;31.35;15.65;;;;;;;;;;1029734;28;20482;-27
2023/02/28 00:43:23;;;;;;;35.22;14.45;;;;;;;;;;1029716;28;20027;-27
2023/02/28 00:43:53;;;;;;;22.05;15.05;;;;;;;;;;1029756;28;20033;-28
2023/02/28 00:44:24;;;;;;;36.08;13.48;;;;;;;;;;1029824;28;20396;-28
2023/02/28 00:44:54;;;;;;;32.42;16.13;;;;;;;;;;1028926;28;20478;-27
2023/02/28 00:45:25;;;;;;;31.92;17.27;;;;;;;;;;1029426;28;20023;-27
2023/02/28 00:45:56;;;;;;;48.53;17.80;;;;;;;;;;1029654;28;20041;-28
2023/02/28 00:46:26;;;;;;;64.30;20.80;;;;;;;;;;1030021;28;20502;-27
2023/02/28 00:46:57;;;;;;;56.72;15.57;;;;;;;;;;1029427;28;20034;-27
2023/02/28 00:47:28;;;;;;;45.47;20.38;;;;;;;;;;1029553;28;20078;-27
2023/02/28 00:47:58;;;;;;;50.67;19.08;;;;;;;;;;1029956;28;20127;-27
2023/02/28 00:48:29;;;;;;;49.45;21.52;;;;;;;;;;1029792;28;20054;-27
2023/02/28 00:49:00;;;;;;;32.97;19.67;;;;;;;;;;1029783;28;20065;-27
2023/02/28 00:49:30;;;;;;;51.88;19.35;;;;;;;;;;1029857;28;20135;-27
2023/02/28 00:50:01;;;;;;;46.50;20.60;;;;;;;;;;1029792;28;20057;-27
2023/02/28 00:50:31;;;;;;;42.78;22.30;;;;;;;;;;1029908;28;20026;-27
2023/02/28 00:51:02;;;;;;;65.68;19.02;;;;;;;;;;1029389;28;20026;-30
2023/02/28 00:51:32;;;;;;;37.03;21.02;;;;;;;;;;1029904;28;20023;-30
2023/02/28 00:52:03;;;;;;;31.33;16.85;;;;;;;;;;1029789;28;20656;-30
2023/02/28 00:52:34;;;;;;;40.30;20.02;;;;;;;;;;1029861;28;20026;-30
2023/02/28 00:53:04;;;;;;;38.03;19.67;;;;;;;;;;1028743;28;20026;-28
2023/02/28 00:53:35;;;;;;;50.90;18.83;;;;;;;;;;1029665;28;20031;-27
2023/02/28 00:54:05;;;;;;;45.10;19.52;;;;;;;;;;1029844;28;20027;-27
2023/02/28 00:54:36;;;;;;;50.38;19.05;;;;;;;;;;1029861;28;20035;-28
2023/02/28 00:55:06;;;;;;;41.35;19.10;;;;;;;;;;1029847;28;20431;-28
2023/02/28 00:55:37;;;;;;;43.65;21.02;;;;;;;;;;1029790;28;20483;-28
2023/02/28 00:56:08;;;;;;;43.20;17.77;;;;;;;;;;1021411;29;20132;-27
2023/02/28 00:56:39;;;;;;;34.28;17.38;;;;;;;;;;1021334;29;20144;-27
2023/02/28 00:57:09;;;;;;;56.80;14.57;;;;;;;;;;1021637;29;20402;-28
2023/02/28 00:57:40;;;;;;;45.05;20.80;;;;;;;;;;1021716;28;20066;-28
2023/02/28 00:58:10;;;;;;;38.38;17.52;;;;;;;;;;1029629;28;20521;-27
2023/02/28 00:58:41;;;;;;;36.88;16.23;;;;;;;;;;1028785;28;20262;-28
2023/02/28 00:59:11;;;;;;;55.97;19.40;;;;;;;;;;1029260;28;20085;-28
2023/02/28 00:59:42;;;;;;;51.53;19.38;;;;;;;;;;1030039;28;20077;-27
2023/02/28 01:00:13;;;;;;;46.72;20.15;;;;;;;;;;1025372;28;20026;-28
2023/02/28 01:00:48;;;;;;;47.03;22.20;;;;;;;;;;1027290;28;20031;-28
2023/02/28 01:01:19;;;;;;;36.88;18.33;;;;;;;;;;1025273;28;20030;-28
2023/02/28 01:01:49;;;;;;;53.80;21.10;;;;;;;;;;1026720;28;20426;-27
2023/02/28 01:02:21;;;;;;;46.92;19.52;;;;;;;;;;1028646;28;20474;-27
2023/02/28 01:02:51;;;;;;;54.50;20.05;;;;;;;;;;1029379;28;20030;-28
2023/02/28 01:03:22;;;;;;;43.55;19.65;;;;;;;;;;1029430;28;20030;-27
2023/02/28 01:03:52;;;;;;;46.88;20.88;;;;;;;;;;1029693;28;20121;-27
2023/02/28 01:04:23;;;;;;;41.90;20.55;;;;;;;;;;1029844;28;20078;-27
2023/02/28 01:04:53;;;;;;;38.28;20.23;;;;;;;;;;1028285;28;20050;-28
2023/02/28 01:05:24;;;;;;;44.05;19.83;;;;;;;;;;1029942;28;20031;-27
2023/02/28 01:05:54;;;;;;;47.70;19.25;;;;;;;;;;1029744;28;20050;-28
2023/02/28 01:06:25;;;;;;;49.72;17.63;;;;;;;;;;1030544;28;20030;-28
2023/02/28 01:06:56;;;;;;;37.28;19.95;;;;;;;;;;1027455;28;20026;-27
2023/02/28 01:07:26;;;;;;;56.90;20.42;;;;;;;;;;1029888;28;20022;-27
2023/02/28 01:07:57;;;;;;;48.10;20.92;;;;;;;;;;1029630;28;20392;-27
2023/02/28 01:08:27;;;;;;;33.75;16.52;;;;;;;;;;1028895;28;20143;-27
2023/02/28 01:08:58;;;;;;;39.80;18.05;;;;;;;;;;1029418;28;20054;-27
2023/02/28 01:09:29;;;;;;;73.15;22.65;;;;;;;;;;1030240;28;20113;-28
2023/02/28 01:09:59;;;;;;;43.40;20.67;;;;;;;;;;1029381;28;20018;-28
2023/02/28 01:10:31;;;;;;;55.45;17.52;;;;;;;;;;1029258;28;20027;-27
2023/02/28 01:11:11;;;;;;;34.60;16.58;;;;;;;;;;1029294;28;20058;-27
2023/02/28 01:11:43;;;;;;;38.60;16.95;;;;;;;;;;1028456;28;20393;-27
2023/02/28 01:12:14;;;;;;;33.13;17.08;;;;;;;;;;1030012;28;20086;-27
2023/02/28 01:12:45;;;;;;;41.78;15.63;;;;;;;;;;1029550;28;20509;-27
2023/02/28 01:13:16;;;;;;;56.00;19.85;;;;;;;;;;1029559;28;20022;-28
2023/02/28 01:13:46;;;;;;;42.70;20.35;;;;;;;;;;1029983;28;20475;-27
2023/02/28 01:14:17;;;;;;;35.88;16.98;;;;;;;;;;1029654;28;20467;-28
2023/02/28 01:14:48;;;;;;;36.42;16.88;;;;;;;;;;1029543;28;20031;-28
2023/02/28 01:15:18;;;;;;;40.10;16.48;;;;;;;;;;1028985;28;20078;-27
2023/02/28 01:15:51;;;;;;;32.00;19.73;;;;;;;;;;1029505;28;20489;-27
2023/02/28 01:16:21;;;;;;;46.92;17.90;;;;;;;;;;1029063;28;20029;-27
2023/02/28 01:16:52;;;;;;;33.70;17.33;;;;;;;;;;1028472;28;20030;-28
2023/02/28 01:17:23;;;;;;;40.83;18.98;;;;;;;;;;1029640;28;20446;-29
2023/02/28 01:17:53;;;;;;;42.92;21.75;;;;;;;;;;1029727;28;20047;-30
2023/02/28 01:18:24;;;;;;;36.30;19.05;;;;;;;;;;1029555;28;20026;-30
2023/02/28 01:18:55;;;;;;;52.58;20.67;;;;;;;;;;1029484;28;20066;-30
2023/02/28 01:19:25;;;;;;;32.03;19.17;;;;;;;;;;1029515;28;20030;-30
2023/02/28 01:19:56;;;;;;;47.67;18.17;;;;;;;;;;1028780;28;20041;-30
2023/02/28 01:20:26;;;;;;;32.88;22.35;;;;;;;;;;1029574;28;20513;-30
2023/02/28 01:20:57;;;;;;;37.33;20.48;;;;;;;;;;1029414;28;20033;-29
2023/02/28 01:21:29;;;;;;;43.40;19.13;;;;;;;;;;1030262;28;20041;-30
2023/02/28 01:22:04;;;;;;;42.53;21.85;;;;;;;;;;1028689;28;20486;-29
2023/02/28 01:22:34;;;;;;;39.15;19.50;;;;;;;;;;1028944;28;20125;-30
2023/02/28 01:23:05;;;;;;;38.55;17.73;;;;;;;;;;1029562;28;20042;-30
2023/02/28 01:23:36;;;;;;;35.22;21.33;;;;;;;;;;1027651;28;20026;-29
2023/02/28 01:24:07;;;;;;;31.48;18.50;;;;;;;;;;1029754;28;20540;-30
2023/02/28 01:24:37;;;;;;;42.28;24.25;;;;;;;;;;1028562;28;20561;-29
2023/02/28 01:25:08;;;;;;;58.22;19.23;;;;;;;;;;1028789;28;20454;-30
2023/02/28 01:25:39;;;;;;;48.30;21.67;;;;;;;;;;1028085;28;20027;-29
2023/02/28 01:26:13;;;;;;;57.22;23.70;;;;;;;;;;1027608;28;20557;-29
2023/02/28 01:26:43;;;;;;;43.28;20.70;;;;;;;;;;1025906;28;20035;-29
2023/02/28 01:27:14;;;;;;;46.88;21.73;;;;;;;;;;1027251;28;20470;-29
2023/02/28 01:27:45;;;;;;;54.67;21.80;;;;;;;;;;1029099;28;20112;-30
2023/02/28 01:28:16;;;;;;;39.70;20.15;;;;;;;;;;1028999;28;20034;-30
2023/02/28 01:28:46;;;;;;;40.75;18.40;;;;;;;;;;1028750;28;20030;-30
2023/02/28 01:29:17;;;;;;;46.03;19.63;;;;;;;;;;1028546;28;20034;-30
2023/02/28 01:29:47;;;;;;;48.97;27.27;;;;;;;;;;1029250;28;20034;-30
2023/02/28 01:30:18;;;;;;;51.25;18.85;;;;;;;;;;1027977;28;20482;-30
2023/02/28 01:30:49;;;;;;;45.25;21.52;;;;;;;;;;1028764;28;20101;-29
2023/02/28 01:31:20;;;;;;;44.08;22.88;;;;;;;;;;1024057;28;20035;-30
2023/02/28 01:31:51;;;;;;;60.67;27.02;;;;;;;;;;1024307;28;20485;-30
2023/02/28 01:32:21;;;;;;;41.20;20.63;;;;;;;;;;1023200;28;20121;-29
2023/02/28 01:32:53;;;;;;;45.63;22.23;;;;;;;;;;1024730;28;20058;-30
2023/02/28 01:33:24;;;;;;;44.78;21.50;;;;;;;;;;1028639;28;20034;-30
2023/02/28 01:33:54;;;;;;;29.27;19.50;;;;;;;;;;1028750;28;20390;-30
2023/02/28 01:34:25;;;;;;;58.15;25.95;;;;;;;;;;1028576;28;20101;-30
2023/02/28 01:34:55;;;;;;;54.55;19.67;;;;;;;;;;1028391;28;20586;-30
2023/02/28 01:35:26;;;;;;;49.75;22.77;;;;;;;;;;1030216;28;20037;-30
2023/02/28 01:36:06;;;;;;;54.90;23.38;;;;;;;;;;1027910;28;20147;-30
2023/02/28 01:36:37;;;;;;;71.47;23.60;;;;;;;;;;1026697;28;20434;-30
2023/02/28 01:37:07;;;;;;;36.70;22.52;;;;;;;;;;1028228;28;20206;-30
2023/02/28 01:37:38;;;;;;;43.88;20.92;;;;;;;;;;1029035;28;20031;-30
2023/02/28 01:38:09;;;;;;;53.35;27.23;;;;;;;;;;1028861;28;20030;-30
2023/02/28 01:38:40;;;;;;;44.70;20.60;;;;;;;;;;1028645;28;20034;-30
2023/02/28 01:39:10;;;;;;;52.60;20.92;;;;;;;;;;1027817;28;20926;-30
2023/02/28 01:39:41;;;;;;;68.05;22.83;;;;;;;;;;1026269;28;20499;-30
2023/02/28 01:40:12;;;;;;;37.88;18.20;;;;;;;;;;1026082;28;20367;-30
2023/02/28 01:40:42;;;;;;;48.85;19.88;;;;;;;;;;1027771;28;20326;-30
2023/02/28 01:41:15;;;;;;;51.75;22.65;;;;;;;;;;1027968;28;20394;-29
2023/02/28 01:41:46;;;;;;;47.78;22.92;;;;;;;;;;1028914;28;20151;-29
2023/02/28 01:42:17;;;;;;;47.20;21.02;;;;;;;;;;1028514;28;20035;-29
2023/02/28 01:42:47;;;;;;;60.42;25.90;;;;;;;;;;1025742;28;20121;-30
2023/02/28 01:43:22;;;;;;;54.70;23.20;;;;;;;;;;1026679;28;20031;-30
2023/02/28 01:44:03;;;;;;;41.70;22.45;;;;;;;;;;1025999;28;20494;-30
2023/02/28 01:44:51;;;;;;;44.95;20.65;;;;;;;;;;1026812;28;20033;-30
2023/02/28 01:45:25;;;;;;;70.18;20.95;;;;;;;;;;1025551;28;20156;-30
2023/02/28 01:45:56;;;;;;;41.13;23.33;;;;;;;;;;1026706;28;20042;-30
2023/02/28 01:46:27;;;;;;;47.38;21.15;;;;;;;;;;1028501;28;20031;-30
2023/02/28 01:46:58;;;;;;;53.30;23.92;;;;;;;;;;1027743;28;20034;-30
2023/02/28 01:47:31;;;;;;;56.78;24.30;;;;;;;;;;1028761;28;20502;-30
2023/02/28 01:48:07;;;;;;;58.22;25.42;;;;;;;;;;1027997;28;20413;-30
2023/02/28 01:48:39;;;;;;;45.88;22.83;;;;;;;;;;1027889;28;20120;-30
2023/02/28 01:49:13;;;;;;;43.15;22.13;;;;;;;;;;1028330;28;20493;-30
2023/02/28 01:49:44;;;;;;;63.63;24.65;;;;;;;;;;1027075;28;20516;-30
2023/02/28 01:50:17;;;;;;;40.53;23.38;;;;;;;;;;1029035;28;20130;-30
2023/02/28 01:50:48;;;;;;;39.42;21.13;;;;;;;;;;1028095;28;20034;-30
2023/02/28 01:51:26;;;;;;;77.55;29.63;;;;;;;;;;1029300;28;20040;-30
2023/02/28 01:51:57;;;;;;;46.63;27.70;;;;;;;;;;1026334;28;20030;-30
2023/02/28 01:52:28;;;;;;;64.53;32.95;;;;;;;;;;1027926;28;20031;-30
2023/02/28 01:53:00;;;;;;;63.80;31.70;;;;;;;;;;1027353;28;20029;-30
2023/02/28 01:53:45;;;;;;;73.22;29.60;;;;;;;;;;1028111;28;20528;-30
2023/02/28 01:54:34;;;;;;;51.15;24.40;;;;;;;;;;1028890;28;20033;-30
2023/02/28 01:55:06;;;;;;;38.45;22.35;;;;;;;;;;1027061;28;20137;-30
2023/02/28 01:55:37;;;;;;;47.15;25.17;;;;;;;;;;1026578;28;20023;-30
2023/02/28 01:56:09;;;;;;;41.67;23.70;;;;;;;;;;1026336;28;20095;-30
2023/02/28 01:56:43;;;;;;;42.92;24.33;;;;;;;;;;1027092;28;21038;-30
2023/02/28 01:57:16;;;;;;;43.80;21.45;;;;;;;;;;1027345;28;20651;-30
2023/02/28 01:57:48;;;;;;;52.03;22.17;;;;;;;;;;1028086;28;20034;-30
2023/02/28 01:58:19;;;;;;;49.28;23.92;;;;;;;;;;1029197;28;20029;-30
2023/02/28 01:58:51;;;;;;;45.97;21.17;;;;;;;;;;1027511;28;20486;-30
2023/02/28 01:59:24;;;;;;;51.42;23.00;;;;;;;;;;1028075;28;20032;-30
2023/02/28 01:59:59;;;;;;;43.53;22.40;;;;;;;;;;1028427;28;20030;-30
2023/02/28 02:00:30;;;;;;;43.50;19.65;;;;;;;;;;1027299;28;20035;-30
2023/02/28 02:01:02;;;;;;;27.88;16.67;;;;;;;;;;1028746;28;20070;-30
2023/02/28 02:01:33;;;;;;;37.13;19.55;;;;;;;;;;1027110;28;20457;-30
2023/02/28 02:02:04;;;;;;;41.10;21.58;;;;;;;;;;1027433;28;20026;-30
2023/02/28 02:02:36;;;;;;;44.03;15.82;;;;;;;;;;1029155;28;20034;-30
2023/02/28 02:03:08;;;;;;;39.90;21.35;;;;;;;;;;1028591;28;20015;-30
2023/02/28 02:03:39;;;;;;;38.80;19.83;;;;;;;;;;1028389;28;20109;-30
2023/02/28 02:04:10;;;;;;;45.92;21.73;;;;;;;;;;1028487;28;20022;-30
2023/02/28 02:04:46;;;;;;;39.92;22.05;;;;;;;;;;1029632;28;20174;-30
2023/02/28 02:05:21;;;;;;;38.50;19.95;;;;;;;;;;1029474;28;20438;-31
2023/02/28 02:05:52;;;;;;;37.67;21.70;;;;;;;;;;1025189;28;20034;-29
2023/02/28 02:06:33;;;;;;;49.28;22.13;;;;;;;;;;1023667;28;20125;-30
2023/02/28 02:07:04;;;;;;;58.28;22.75;;;;;;;;;;1023519;28;20554;-30
2023/02/28 02:07:36;;;;;;;40.95;21.50;;;;;;;;;;1026824;28;20063;-30
2023/02/28 02:08:12;;;;;;;55.63;25.08;;;;;;;;;;1027627;28;20030;-30
2023/02/28 02:08:43;;;;;;;41.70;20.13;;;;;;;;;;1025821;28;20029;-30
2023/02/28 02:09:13;;;;;;;46.10;23.33;;;;;;;;;;1026344;28;20023;-30
2023/02/28 02:09:44;;;;;;;51.65;27.75;;;;;;;;;;1023549;28;20031;-30
2023/02/28 02:10:19;;;;;;;46.38;23.20;;;;;;;;;;1026733;28;20065;-29
2023/02/28 02:10:54;;;;;;;55.28;25.65;;;;;;;;;;1026505;28;20788;-29
2023/02/28 02:11:25;;;;;;;55.05;24.30;;;;;;;;;;1026205;28;20042;-30
2023/02/28 02:11:57;;;;;;;68.22;27.38;;;;;;;;;;1026054;28;20031;-29
2023/02/28 02:12:34;;;;;;;54.80;26.85;;;;;;;;;;1027894;28;20482;-29
2023/02/28 02:13:13;;;;;;;54.83;28.08;;;;;;;;;;1028262;28;20370;-30
2023/02/28 02:13:44;;;;;;;48.50;20.52;;;;;;;;;;1024482;28;20281;-30
2023/02/28 02:14:18;;;;;;;44.42;21.08;;;;;;;;;;1028570;28;20117;-29
2023/02/28 02:14:55;;;;;;;49.75;26.80;;;;;;;;;;1028931;28;20030;-29
2023/02/28 02:15:25;;;;;;;58.25;24.25;;;;;;;;;;1029727;28;20038;-28
2023/02/28 02:15:59;;;;;;;61.20;25.52;;;;;;;;;;1030276;28;20038;-30
2023/02/28 02:16:48;;;;;;;67.63;25.98;;;;;;;;;;1027746;28;20022;-29
2023/02/28 02:17:29;;;;;;;41.10;20.80;;;;;;;;;;1028173;28;20030;-29
2023/02/28 02:18:20;;;;;;;27.70;16.23;;;;;;;;;;1028845;28;20433;-30
2023/02/28 02:18:50;;;;;;;45.38;19.52;;;;;;;;;;1011560;29;20605;-29
2023/02/28 02:19:30;;;;;;;51.17;24.20;;;;;;;;;;1022034;28;20029;-29
2023/02/28 02:20:03;;;;;;;;;;;;;;;;;;1020313;29;20135;-28
2023/02/28 02:20:36;;;;;;;50.25;20.75;;;;;;;;;;1019711;28;19915;-27
2023/02/28 02:21:25;;;;;;;44.45;21.33;;;;;;;;;;1024856;28;20030;-30
2023/02/28 02:22:14;;;;;;;49.60;21.48;;;;;;;;;;1026386;28;20033;-29
2023/02/28 02:22:48;;;;;;;29.88;17.02;;;;;;;;;;1027498;28;20569;-30
2023/02/28 02:23:37;;;;;;;47.45;18.08;;;;;;;;;;1028098;28;20069;-30
2023/02/28 02:24:24;;;;;;;35.78;16.25;;;;;;;;;;1027341;28;20556;-30
2023/02/28 02:24:55;;;;;;;35.33;17.05;;;;;;;;;;1028482;28;20019;-29
2023/02/28 02:25:31;;;;;;;30.45;19.55;;;;;;;;;;1028761;28;20523;-29
2023/02/28 02:26:16;;;;;;;57.90;19.73;;;;;;;;;;1026861;28;20069;-29
2023/02/28 02:26:55;;;;;;;39.17;20.52;;;;;;;;;;1027345;28;20430;-30
2023/02/28 02:27:41;;;;;;;43.10;16.13;;;;;;;;;;1028645;28;20037;-30
2023/02/28 02:28:22;;;;;;;44.85;15.77;;;;;;;;;;1026267;28;20043;-29
2023/02/28 02:28:52;;;;;;;;;;;;;;;;;;1026840;28;20322;-29
2023/02/28 02:29:41;;;;;;;43.80;19.23;;;;;;;;;;1026220;28;19917;-30
2023/02/28 02:30:20;;;;;;;27.98;18.00;;;;;;;;;;1028351;28;20034;-29
2023/02/28 02:30:54;;;;;;;60.10;21.67;;;;;;;;;;1027502;28;20593;-29
2023/02/28 02:31:24;;;;;;;35.55;19.08;;;;;;;;;;1028717;28;20022;-30
2023/02/28 02:32:05;;;;;;;28.05;16.27;;;;;;;;;;1027235;28;20034;-29
2023/02/28 02:32:54;;;;;;;40.40;18.10;;;;;;;;;;1027433;28;20038;-29
2023/02/28 02:33:45;;;;;;;53.45;16.88;;;;;;;;;;1026943;28;20497;-30
2023/02/28 02:34:16;;;;;;;35.08;18.02;;;;;;;;;;1014674;28;20039;-30
2023/02/28 02:35:05;;;;;;;47.78;18.83;;;;;;;;;;1027280;28;20065;-30
2023/02/28 02:35:51;;;;;;;32.72;20.05;;;;;;;;;;1026141;28;20070;-29
2023/02/28 02:36:24;;;;;;;40.22;20.33;;;;;;;;;;1029224;28;20045;-30
2023/02/28 02:36:55;;;;;;;38.50;17.73;;;;;;;;;;1027442;28;20398;-30
2023/02/28 02:37:31;;;;;;;68.25;25.95;;;;;;;;;;1028081;28;20031;-29
2023/02/28 02:38:16;;;;;;;53.45;24.77;;;;;;;;;;1027345;28;20027;-30
2023/02/28 02:38:51;;;;;;;62.92;27.67;;;;;;;;;;1027369;28;20113;-29
2023/02/28 02:39:31;;;;;;;60.00;31.05;;;;;;;;;;1027278;28;20482;-30
2023/02/28 02:40:14;;;;;;;66.63;27.67;;;;;;;;;;1027437;28;20022;-30
2023/02/28 02:40:51;;;;;;;74.00;33.13;;;;;;;;;;1026513;28;20039;-29
2023/02/28 02:41:37;;;;;;;86.75;31.70;;;;;;;;;;1029119;28;20161;-29
2023/02/28 02:42:16;;;;;;;81.75;34.42;;;;;;;;;;1026379;28;20038;-30
2023/02/28 02:42:52;;;;;;;71.97;32.85;;;;;;;;;;1026149;28;20030;-30
2023/02/28 02:43:26;;;;;;;69.90;28.63;;;;;;;;;;1028074;28;20027;-30
2023/02/28 02:44:07;;;;;;;82.00;28.55;;;;;;;;;;1029299;28;20140;-29
2023/02/28 02:44:37;;;;;;;;;;;;;;;;;;1028350;28;20069;-30
2023/02/28 02:45:14;;;;;;;56.50;24.02;;;;;;;;;;1027638;28;20008;-30
2023/02/28 02:45:48;;;;;;;72.25;29.17;;;;;;;;;;1027174;28;20038;-30
2023/02/28 02:46:26;;;;;;;57.17;24.70;;;;;;;;;;1025577;28;20402;-30
2023/02/28 02:47:03;;;;;;;62.42;29.08;;;;;;;;;;1026079;28;20035;-29
2023/02/28 02:47:35;;;;;;;63.65;30.50;;;;;;;;;;1025520;28;20516;-29
2023/02/28 02:48:08;;;;;;;63.90;32.67;;;;;;;;;;1027768;28;20316;-30
2023/02/28 02:48:40;;;;;;;68.82;31.10;;;;;;;;;;1026657;28;20022;-30
2023/02/28 02:49:17;;;;;;;78.13;32.67;;;;;;;;;;1027781;28;20114;-30
2023/02/28 02:49:54;;;;;;;68.30;30.27;;;;;;;;;;1023080;28;20372;-30
2023/02/28 02:50:29;;;;;;;61.50;28.00;;;;;;;;;;1019463;29;20063;-30
2023/02/28 02:51:01;;;;;;;61.45;28.92;;;;;;;;;;1019898;29;20162;-29
2023/02/28 02:51:33;;;;;;;64.82;27.70;;;;;;;;;;1023392;28;20106;-30
2023/02/28 02:52:05;;;;;;;58.42;24.13;;;;;;;;;;1021147;28;20118;-29
2023/02/28 02:52:40;;;;;;;59.45;22.52;;;;;;;;;;1022850;28;20039;-29
2023/02/28 02:53:13;;;;;;;47.88;24.05;;;;;;;;;;1025840;28;20027;-29
2023/02/28 02:54:01;;;;;;;75.35;27.90;;;;;;;;;;1021408;28;20042;-30
2023/02/28 02:54:36;;;;;;;43.55;20.75;;;;;;;;;;1024032;28;20505;-29
2023/02/28 02:55:08;;;;;;;53.78;22.35;;;;;;;;;;1027334;28;20095;-30
2023/02/28 02:55:43;;;;;;;61.10;25.05;;;;;;;;;;1026314;28;20029;-30
2023/02/28 02:56:27;;;;;;;29.35;19.10;;;;;;;;;;1027319;28;20039;-30
2023/02/28 02:57:13;;;;;;;32.20;16.67;;;;;;;;;;1025799;28;20030;-30
2023/02/28 02:57:53;;;;;;;43.72;20.23;;;;;;;;;;1029957;28;20117;-30
2023/02/28 02:59:41;;;;;;;49.13;23.13;;;;;;;;;;1021814;28;20052;-30
2023/02/28 03:00:16;;;;;;;46.03;22.10;;;;;;;;;;1030352;28;20037;-29
2023/02/28 03:00:51;;;;;;;42.85;19.00;;;;;;;;;;1025384;28;20042;-30
2023/02/28 03:01:28;;;;;;;46.03;18.65;;;;;;;;;;1021684;28;21548;-30
2023/02/28 03:02:06;;;;;;;48.25;24.85;;;;;;;;;;1021192;28;20810;-30
2023/02/28 03:03:00;;;;;;;52.70;21.73;;;;;;;;;;1025327;28;20542;-29
2023/02/28 03:05:01;;;;;;;55.22;23.65;;;;;;;;;;1016492;28;20566;-30
2023/02/28 03:05:46;;;;;;;50.58;20.67;;;;;;;;;;1021948;28;20031;-30
2023/02/28 03:06:18;;;;;;;44.25;22.10;;;;;;;;;;1018387;29;20559;-30
2023/02/28 03:06:57;;;;;;;62.83;26.85;;;;;;;;;;1013190;29;20932;-30
2023/02/28 03:07:31;;;;;;;63.90;24.80;;;;;;;;;;1019213;28;20913;-30
2023/02/28 03:08:05;;;;;;;76.65;31.17;;;;;;;;;;1018428;29;20031;-28
2023/02/28 03:08:51;;;;;;;88.75;31.73;;;;;;;;;;1020675;28;20031;-30
2023/02/28 03:09:42;;;;;;;60.78;26.67;;;;;;;;;;1020841;28;20467;-31
2023/02/28 03:10:33;;;;;;;58.70;25.20;;;;;;;;;;1015078;29;20028;-29
2023/02/28 03:11:18;;;;;;;87.50;28.50;;;;;;;;;;1018414;29;20039;-31
2023/02/28 03:12:18;;;;;;;59.17;24.02;;;;;;;;;;1018441;28;20075;-30
2023/02/28 03:13:00;;;;;;;58.72;27.17;;;;;;;;;;1021267;28;20031;-30
2023/02/28 03:14:46;;;;;;;45.92;21.27;;;;;;;;;;1019228;28;20588;-30
2023/02/28 03:15:25;;;;;;;50.15;22.05;;;;;;;;;;1023830;28;20027;-30
2023/02/28 03:16:01;;;;;;;55.28;25.15;;;;;;;;;;1026062;28;20031;-30
2023/02/28 03:16:36;;;;;;;53.65;21.55;;;;;;;;;;1027627;28;20039;-30
2023/02/28 03:17:09;;;;;;;60.92;21.70;;;;;;;;;;1020102;28;20438;-29
2023/02/28 03:17:50;;;;;;;48.65;19.60;;;;;;;;;;1021822;28;20133;-30
2023/02/28 03:19:48;;;;;;;56.13;24.08;;;;;;;;;;1025857;28;20031;-30
2023/02/28 03:20:25;;;;;;;41.03;18.85;;;;;;;;;;1020662;28;20456;-30
2023/02/28 03:21:13;;;;;;;53.65;20.42;;;;;;;;;;1022231;28;20027;-31